createdAt,value
2018-05-04T00:00:32.366Z,3.40
2018-05-04T00:05:35.962Z,3.55
2018-05-04T00:10:38.822Z,3.60
2018-05-04T00:15:41.820Z,3.60
2018-05-04T00:20:44.666Z,3.33
2018-05-04T00:25:47.566Z,3.67
2018-05-04T00:30:50.442Z,3.55
2018-05-04T00:35:53.255Z,3.20
2018-05-04T00:40:56.120Z,3.92
2018-05-04T00:45:59.281Z,3.72
2018-05-04T00:51:02.136Z,3.92
2018-05-04T00:56:04.967Z,3.58
2018-05-04T01:01:07.828Z,3.63
2018-05-04T01:06:10.669Z,3.72
2018-05-04T01:11:13.497Z,4.10
2018-05-04T01:16:17.125Z,3.70
2018-05-04T01:21:20.724Z,3.20
2018-05-04T01:26:23.597Z,3.40
2018-05-04T01:31:26.433Z,4.05
2018-05-04T01:36:30.058Z,3.70
2018-05-04T01:41:33.668Z,3.35
2018-05-04T01:46:37.326Z,3.78
2018-05-04T01:51:40.231Z,3.67
2018-05-04T01:56:43.147Z,3.70
2018-05-04T02:01:47.124Z,3.67
2018-05-04T02:06:50.299Z,4.10
2018-05-04T02:11:53.174Z,3.85
2018-05-04T02:16:56.033Z,4.20
2018-05-04T02:21:59.656Z,3.60
2018-05-04T02:27:03.277Z,3.70
2018-05-04T02:32:06.168Z,3.75
2018-05-04T02:37:08.982Z,3.70
2018-05-04T02:42:11.826Z,4.10
2018-05-04T02:47:14.636Z,3.97
2018-05-04T02:52:17.459Z,3.42
2018-05-04T02:57:22.856Z,3.87
2018-05-04T03:02:25.682Z,3.42
2018-05-04T03:07:28.482Z,3.95
2018-05-04T03:12:31.354Z,4.00
2018-05-04T03:17:34.164Z,3.30
2018-05-04T03:22:36.979Z,4.12
2018-05-04T03:27:39.817Z,3.90
2018-05-04T03:32:43.897Z,3.75
2018-05-04T03:37:49.931Z,3.70
2018-05-04T03:42:52.879Z,3.87
2018-05-04T03:47:55.867Z,3.92
2018-05-04T03:53:00.254Z,3.97
2018-05-04T03:58:17.088Z,4.00
2018-05-04T04:03:31.706Z,4.37
2018-05-04T04:08:34.767Z,3.87
2018-05-04T04:13:37.605Z,3.83
2018-05-04T04:18:40.474Z,3.67
2018-05-04T04:23:43.618Z,4.00
2018-05-04T04:28:46.674Z,3.20
2018-05-04T04:33:49.795Z,3.40
2018-05-04T04:44:30.691Z,3.67
2018-05-04T04:49:34.030Z,4.00
2018-05-04T04:54:36.900Z,3.70
2018-05-04T04:59:39.796Z,4.20
2018-05-04T05:04:42.919Z,3.50
2018-05-04T05:09:45.814Z,4.00
2018-05-04T05:14:48.715Z,3.67
2018-05-04T05:19:51.554Z,3.62
2018-05-04T05:24:54.398Z,3.50
2018-05-04T05:29:57.645Z,3.97
2018-05-04T05:35:00.498Z,3.07
2018-05-04T05:40:03.396Z,3.30
2018-05-04T05:45:06.238Z,3.47
2018-05-04T05:50:09.121Z,3.20
2018-05-04T05:55:11.934Z,3.60
2018-05-04T06:00:14.756Z,3.70
2018-05-04T06:05:18.726Z,3.63
2018-05-04T06:10:22.238Z,3.50
2018-05-04T06:15:25.060Z,3.20
2018-05-04T06:20:27.889Z,3.17
2018-05-04T06:25:31.244Z,3.00
2018-05-04T06:30:34.034Z,3.40
2018-05-04T06:35:36.858Z,3.70
2018-05-04T06:40:40.977Z,3.30
2018-05-04T06:45:43.826Z,3.45
2018-05-04T06:50:47.301Z,3.60
2018-05-04T06:55:50.132Z,3.70
2018-05-04T07:00:52.943Z,3.50
2018-05-04T07:05:56.186Z,3.30
2018-05-04T07:10:59.026Z,3.50
2018-05-04T07:16:02.744Z,3.27
2018-05-04T07:21:06.098Z,3.45
2018-05-04T07:26:08.959Z,3.10
2018-05-04T07:31:11.890Z,2.90
2018-05-04T07:36:14.768Z,3.30
2018-05-04T07:41:17.613Z,3.10
2018-05-04T07:46:21.526Z,2.90
2018-05-04T07:51:24.396Z,3.40
2018-05-04T08:01:59.033Z,3.10
2018-05-04T08:07:02.829Z,3.30
2018-05-04T08:12:05.694Z,4.45
2018-05-04T08:17:09.612Z,3.50
2018-05-04T08:22:12.445Z,3.58
2018-05-04T08:27:15.357Z,3.10
2018-05-04T08:32:18.247Z,3.90
2018-05-04T08:37:21.091Z,3.60
2018-05-04T08:42:24.258Z,3.67
2018-05-04T08:47:29.050Z,3.60
2018-05-04T08:52:31.934Z,3.55
2018-05-04T08:57:35.432Z,3.80
2018-05-04T09:02:38.432Z,3.70
2018-05-04T09:07:41.337Z,3.60
2018-05-04T09:12:45.364Z,3.10
2018-05-04T09:17:48.138Z,3.50
2018-05-04T09:22:50.975Z,3.20
2018-05-04T09:27:54.017Z,3.50
2018-05-04T09:32:56.884Z,3.50
2018-05-04T09:37:59.763Z,3.20
2018-05-04T09:48:29.210Z,3.40
2018-05-04T09:53:32.107Z,3.00
2018-05-04T09:58:35.015Z,3.15
2018-05-04T10:03:37.871Z,3.30
2018-05-04T10:08:40.704Z,2.90
2018-05-04T10:13:43.540Z,3.60
2018-05-04T10:18:46.397Z,3.70
2018-05-04T10:23:49.913Z,3.37
2018-05-04T10:28:52.846Z,3.97
2018-05-04T10:33:55.723Z,3.80
2018-05-04T10:38:58.656Z,4.60
2018-05-04T10:44:01.664Z,3.70
2018-05-04T10:49:04.563Z,3.95
2018-05-04T10:54:07.605Z,4.90
2018-05-04T10:59:10.556Z,4.27
2018-05-04T11:04:13.355Z,3.70
2018-05-04T11:09:16.401Z,4.00
2018-05-04T11:14:19.295Z,4.43
2018-05-04T11:19:22.147Z,4.10
2018-05-04T11:24:25.375Z,4.45
2018-05-04T11:29:28.981Z,3.92
2018-05-04T11:34:31.825Z,4.40
2018-05-04T11:39:34.657Z,4.20
2018-05-04T11:44:41.175Z,4.37
2018-05-04T11:49:44.419Z,3.83
2018-05-04T11:54:47.471Z,4.25
2018-05-04T11:59:51.449Z,3.65
2018-05-04T12:04:54.944Z,3.20
2018-05-04T12:09:57.908Z,3.70
2018-05-04T12:15:00.779Z,3.50
2018-05-04T12:20:03.734Z,3.58
2018-05-04T12:25:06.824Z,3.35
2018-05-04T12:30:12.807Z,3.13
2018-05-04T12:35:15.844Z,3.30
2018-05-04T12:40:18.738Z,3.37
2018-05-04T12:45:21.811Z,3.80
2018-05-04T12:50:24.786Z,3.45
2018-05-04T12:55:27.757Z,3.53
2018-05-04T13:00:30.709Z,3.40
2018-05-04T13:05:33.676Z,3.50
2018-05-04T13:10:38.974Z,3.50
2018-05-04T13:21:08.856Z,3.30
2018-05-04T13:26:11.361Z,3.30
2018-05-04T13:31:13.975Z,3.50
2018-05-04T13:36:16.546Z,3.20
2018-05-04T13:41:19.100Z,3.15
2018-05-04T13:46:21.672Z,3.10
2018-05-04T13:51:24.952Z,3.10
2018-05-04T13:56:29.419Z,3.27
2018-05-04T14:01:31.963Z,2.80
2018-05-04T14:06:35.106Z,2.85
2018-05-04T14:11:38.168Z,3.10
2018-05-04T14:16:40.685Z,3.30
2018-05-04T14:21:46.469Z,3.70
2018-05-04T14:26:49.054Z,3.03
2018-05-04T14:31:51.584Z,3.20
2018-05-04T14:36:54.193Z,2.80
2018-05-04T14:41:56.757Z,3.00
2018-05-04T14:46:59.392Z,3.20
2018-05-04T14:52:01.926Z,3.20
2018-05-04T14:57:05.377Z,2.80
2018-05-04T15:02:07.914Z,2.90
2018-05-04T15:07:11.101Z,2.70
2018-05-04T15:12:15.082Z,2.70
2018-05-04T15:17:17.612Z,3.10
2018-05-04T15:22:20.149Z,3.00
2018-05-04T15:27:24.597Z,2.90
2018-05-04T15:32:27.197Z,3.03
2018-05-04T15:37:29.756Z,2.65
2018-05-04T15:42:34.756Z,3.20
2018-05-04T15:47:37.558Z,2.60
2018-05-04T15:52:41.261Z,2.67
2018-05-04T15:57:45.898Z,2.67
2018-05-04T16:02:48.860Z,2.80
2018-05-04T16:07:53.841Z,3.05
2018-05-04T16:12:56.743Z,2.90
2018-05-04T16:18:02.030Z,2.50
2018-05-04T16:23:05.262Z,2.60
2018-05-04T16:28:08.075Z,3.03
2018-05-04T16:33:11.216Z,3.00
2018-05-04T16:38:13.860Z,3.12
2018-05-04T16:43:16.590Z,3.10
2018-05-04T16:48:27.541Z,3.50
2018-05-04T16:53:31.962Z,2.97
2018-05-04T16:58:34.752Z,3.10
2018-05-04T17:03:37.313Z,3.20
2018-05-04T17:08:39.801Z,3.40
2018-05-04T17:13:50.227Z,3.20
2018-05-04T17:18:53.029Z,3.47
2018-05-04T17:23:55.543Z,3.08
2018-05-04T17:28:59.635Z,3.25
2018-05-04T17:34:02.418Z,3.92
2018-05-04T17:39:05.676Z,4.00
2018-05-04T17:44:08.155Z,4.60
2018-05-04T17:49:10.622Z,3.90
2018-05-04T17:54:14.651Z,4.10
2018-05-04T17:59:17.174Z,3.90
2018-05-04T18:04:19.726Z,4.40
2018-05-04T18:09:22.211Z,4.80
2018-05-04T18:14:24.699Z,4.20
2018-05-04T18:19:27.217Z,4.00
2018-05-04T18:24:30.972Z,5.00
2018-05-04T18:29:34.082Z,4.67
2018-05-04T18:34:36.631Z,5.28
2018-05-04T18:39:39.136Z,5.00
2018-05-04T18:44:41.648Z,5.00
2018-05-04T18:49:44.131Z,5.00
2018-05-04T18:54:46.628Z,4.72
2018-05-04T18:59:49.140Z,5.78
2018-05-04T19:04:51.695Z,5.20
2018-05-04T19:09:54.204Z,5.10
2018-05-04T19:14:56.747Z,4.85
2018-05-04T19:19:59.253Z,5.03
2018-05-04T19:25:01.768Z,4.50
2018-05-04T19:30:04.269Z,5.28
2018-05-04T19:35:08.545Z,4.80
2018-05-04T19:40:11.026Z,4.60
2018-05-04T19:45:13.517Z,4.90
2018-05-04T19:50:16.014Z,4.70
2018-05-04T19:55:18.532Z,4.93
2018-05-04T20:00:21.061Z,4.80
2018-05-04T20:05:23.557Z,5.40
2018-05-04T20:10:26.164Z,4.60
2018-05-04T20:15:28.801Z,4.40
2018-05-04T20:20:31.304Z,4.68
2018-05-04T20:25:33.844Z,5.25
2018-05-04T20:30:36.359Z,4.45
2018-05-04T20:35:38.861Z,3.90
2018-05-04T20:40:41.393Z,5.20
2018-05-04T20:45:45.873Z,5.93
2018-05-04T20:50:49.021Z,4.62
2018-05-04T20:55:51.635Z,4.40
2018-05-04T21:00:54.153Z,4.22
2018-05-04T21:05:56.724Z,4.10
2018-05-04T21:10:59.311Z,4.05
2018-05-04T21:16:02.445Z,4.30
2018-05-04T21:21:04.964Z,5.90
2018-05-04T21:26:07.543Z,4.40
2018-05-04T21:31:10.088Z,4.22
2018-05-04T21:36:12.654Z,4.50
2018-05-04T21:41:15.291Z,4.10
2018-05-04T21:46:17.843Z,3.83
2018-05-04T21:51:20.668Z,3.80
2018-05-04T21:56:23.218Z,4.10
2018-05-04T22:01:25.786Z,3.80
2018-05-04T22:06:28.349Z,4.30
2018-05-04T22:11:30.897Z,4.05
2018-05-04T22:16:33.403Z,3.60
2018-05-04T22:21:35.941Z,4.07
2018-05-04T22:26:38.463Z,4.20
2018-05-04T22:31:41.008Z,5.72
2018-05-04T22:36:43.517Z,4.30
2018-05-04T22:41:46.078Z,4.28
2018-05-04T22:46:48.567Z,3.70
2018-05-04T22:51:51.064Z,4.50
2018-05-04T22:56:53.576Z,3.67
2018-05-04T23:01:56.127Z,4.25
2018-05-04T23:06:58.664Z,4.10
2018-05-04T23:12:01.444Z,4.00
2018-05-04T23:17:03.987Z,4.47
2018-05-04T23:22:06.502Z,4.53
2018-05-04T23:27:09.032Z,4.63
2018-05-04T23:32:12.428Z,4.50
2018-05-04T23:37:14.914Z,4.12
2018-05-04T23:42:17.439Z,4.20
2018-05-04T23:47:20.398Z,4.10
2018-05-04T23:52:22.994Z,4.50
2018-05-04T23:57:25.554Z,4.33
